Time;durP1;ratioP1;P1;durP2;ratioP2;P2;SDS_P1;SDS_P2;PMS_P1;PMS_P2;Temp;Humidity;BMP_temperature;BMP_pressure;BME280_temperature;BME280_humidity;BME280_pressure;Samples;Min_cycle;Max_cycle;Signal;HPM_P1;HPM_P2
2022/08/30 00:02:52;;;;;;;3.47;1.98;;;15.30;98.50;;;;;;4184924;28;20049;-84
2022/08/30 00:04:53;;;;;;;2.20;1.67;;;15.20;98.30;;;;;;4184171;28;20120;-85
2022/08/30 00:06:53;;;;;;;6.00;1.90;;;15.20;98.70;;;;;;4166599;28;20179;-84
2022/08/30 00:08:55;;;;;;;3.08;1.60;;;15.20;98.50;;;;;;4184575;28;20052;-84
2022/08/30 00:10:55;;;;;;;6.35;2.00;;;15.20;98.50;;;;;;4183355;28;20092;-84
2022/08/30 00:12:57;;;;;;;4.57;1.70;;;15.20;98.60;;;;;;4183771;28;20511;-85
2022/08/30 00:14:58;;;;;;;4.38;1.75;;;15.20;98.60;;;;;;4184102;28;20048;-84
2022/08/30 00:16:58;;;;;;;5.25;1.80;;;15.20;98.70;;;;;;4183147;28;20052;-84
2022/08/30 00:19:01;;;;;;;7.18;1.90;;;15.10;98.70;;;;;;4182046;28;20073;-84
2022/08/30 00:21:03;;;;;;;2.38;1.70;;;15.10;98.70;;;;;;4183261;28;20418;-84
2022/08/30 00:23:05;;;;;;;3.55;1.83;;;15.00;98.80;;;;;;4182276;28;20099;-84
2022/08/30 00:25:06;;;;;;;2.75;1.77;;;15.00;98.80;;;;;;4183046;28;20087;-85
2022/08/30 00:27:07;;;;;;;2.95;1.83;;;15.00;98.80;;;;;;4181978;28;20158;-84
2022/08/30 00:29:09;;;;;;;2.88;1.80;;;15.00;98.70;;;;;;4183729;28;20453;-84
2022/08/30 00:31:11;;;;;;;4.68;1.63;;;14.90;98.80;;;;;;4182912;28;20157;-84
2022/08/30 00:33:13;;;;;;;3.05;1.58;;;14.90;98.80;;;;;;4182902;28;20049;-84
2022/08/30 00:35:16;;;;;;;3.28;1.90;;;14.90;98.80;;;;;;4181548;28;20041;-85
2022/08/30 00:37:18;;;;;;;6.65;2.30;;;14.90;98.80;;;;;;4183431;28;20060;-84
2022/08/30 00:39:19;;;;;;;3.85;1.60;;;14.80;98.80;;;;;;4182466;28;20518;-84
2022/08/30 00:41:20;;;;;;;3.88;2.45;;;14.80;98.90;;;;;;4181855;28;20037;-84
2022/08/30 00:43:27;;;;;;;4.10;1.50;;;14.80;99.00;;;;;;4181628;28;20051;-84
2022/08/30 00:45:32;;;;;;;2.22;1.63;;;14.70;98.90;;;;;;4183343;28;20546;-84
2022/08/30 00:47:34;;;;;;;2.08;1.50;;;14.70;98.80;;;;;;4183592;28;20064;-84
2022/08/30 00:49:36;;;;;;;4.57;1.90;;;14.80;98.80;;;;;;4182431;28;20064;-84
2022/08/30 00:51:39;;;;;;;4.97;2.10;;;14.80;98.80;;;;;;4181803;28;20049;-84
2022/08/30 00:53:44;;;;;;;4.10;1.50;;;14.80;98.90;;;;;;4181704;28;20084;-84
2022/08/30 00:55:45;;;;;;;9.57;2.28;;;14.80;98.80;;;;;;4182196;28;20040;-84
2022/08/30 00:57:49;;;;;;;5.72;1.85;;;14.70;98.80;;;;;;4180498;28;20465;-84
2022/08/30 00:59:50;;;;;;;2.22;1.70;;;14.70;98.80;;;;;;4180447;28;20056;-84
2022/08/30 01:01:52;;;;;;;3.53;1.42;;;14.70;98.90;;;;;;4181843;28;20451;-84
2022/08/30 01:03:53;;;;;;;3.40;1.60;;;14.70;98.90;;;;;;4181517;28;20049;-84
2022/08/30 01:05:57;;;;;;;2.22;1.40;;;14.70;98.90;;;;;;4180760;28;20506;-85
2022/08/30 01:07:58;;;;;;;1.77;1.30;;;14.70;99.00;;;;;;4182086;28;20083;-84
2022/08/30 01:09:58;;;;;;;4.55;1.75;;;14.60;98.90;;;;;;4181942;28;20092;-84
2022/08/30 01:12:00;;;;;;;2.60;1.45;;;14.60;99.10;;;;;;4181127;28;20136;-84
2022/08/30 01:14:01;;;;;;;1.95;1.40;;;14.60;99.30;;;;;;4181321;28;20059;-84
2022/08/30 01:16:03;;;;;;;3.53;1.40;;;14.60;99.10;;;;;;4182236;28;20116;-84
2022/08/30 01:18:04;;;;;;;4.38;1.45;;;14.60;99.10;;;;;;4164474;28;20546;-84
2022/08/30 01:20:09;;;;;;;4.47;1.73;;;14.60;99.20;;;;;;4182291;28;20049;-85
2022/08/30 01:22:37;;;;;;;1.90;1.50;;;14.60;99.20;;;;;;4182293;28;20041;-85
2022/08/30 01:24:38;;;;;;;2.28;1.50;;;14.60;99.40;;;;;;4182382;28;20564;-85
2022/08/30 01:26:39;;;;;;;3.60;1.20;;;14.50;99.30;;;;;;4164870;28;20045;-84
2022/08/30 01:28:41;;;;;;;2.63;1.58;;;14.50;99.40;;;;;;4181272;28;20056;-85
2022/08/30 01:30:41;;;;;;;3.00;1.50;;;14.50;99.50;;;;;;4181104;28;20049;-85
2022/08/30 01:32:45;;;;;;;2.25;1.15;;;14.50;99.50;;;;;;4183072;28;20048;-84
2022/08/30 01:34:47;;;;;;;1.60;1.30;;;14.50;99.60;;;;;;4184750;28;20083;-85
2022/08/30 01:36:49;;;;;;;2.47;1.10;;;14.50;99.70;;;;;;4191906;28;20052;-85
2022/08/30 01:38:55;;;;;;;2.30;1.00;;;14.50;99.60;;;;;;4187886;28;20040;-85
2022/08/30 01:41:12;;;;;;;1.65;1.13;;;14.50;99.70;;;;;;4182819;28;20049;-85
2022/08/30 01:43:16;;;;;;;1.25;0.80;;;14.40;99.80;;;;;;4164428;28;20509;-85
2022/08/30 01:45:17;;;;;;;1.98;1.10;;;14.40;99.80;;;;;;4180566;28;20118;-85
2022/08/30 01:47:20;;;;;;;1.33;1.00;;;14.40;99.80;;;;;;4181138;28;20056;-85
2022/08/30 01:49:20;;;;;;;1.25;0.80;;;14.40;99.80;;;;;;4180573;28;20053;-85
2022/08/30 01:51:24;;;;;;;3.13;1.40;;;14.40;99.90;;;;;;4182624;28;20056;-85
2022/08/30 01:53:25;;;;;;;1.60;0.88;;;14.40;99.90;;;;;;4181748;28;20056;-85
2022/08/30 01:55:26;;;;;;;2.40;1.50;;;14.40;99.90;;;;;;4181299;28;20589;-84
2022/08/30 01:57:27;;;;;;;1.58;1.30;;;14.40;99.90;;;;;;4164557;28;20439;-84
2022/08/30 01:59:27;;;;;;;1.85;1.20;;;14.40;99.90;;;;;;4182804;28;20048;-84
2022/08/30 02:01:29;;;;;;;3.20;1.50;;;14.40;99.90;;;;;;4182827;28;20068;-84
2022/08/30 02:03:33;;;;;;;1.75;1.40;;;14.40;99.90;;;;;;4165280;28;20132;-84
2022/08/30 02:05:34;;;;;;;2.97;1.30;;;14.30;99.90;;;;;;4182963;28;20045;-85
2022/08/30 02:07:36;;;;;;;4.35;1.60;;;14.40;99.90;;;;;;4165699;28;20102;-84
2022/08/30 02:09:38;;;;;;;3.25;1.40;;;14.30;99.90;;;;;;4182429;28;20149;-84
2022/08/30 02:11:39;;;;;;;2.05;1.38;;;14.40;99.90;;;;;;4181725;28;20069;-84
2022/08/30 02:13:43;;;;;;;1.55;1.45;;;14.40;99.90;;;;;;4182904;28;20060;-85
2022/08/30 02:15:44;;;;;;;5.50;1.42;;;14.40;99.90;;;;;;4182290;28;20045;-85
2022/08/30 02:17:45;;;;;;;2.35;1.48;;;14.40;99.90;;;;;;4182279;28;20044;-85
2022/08/30 02:19:48;;;;;;;2.53;1.52;;;14.40;99.90;;;;;;4182834;28;20461;-85
2022/08/30 02:21:48;;;;;;;2.08;1.40;;;14.40;99.90;;;;;;4182395;28;20305;-84
2022/08/30 02:23:50;;;;;;;2.20;1.30;;;14.40;99.90;;;;;;4181353;28;20082;-84
2022/08/30 02:25:53;;;;;;;2.65;1.58;;;14.40;99.90;;;;;;4165671;28;20128;-85
2022/08/30 02:27:55;;;;;;;4.50;1.50;;;14.40;99.90;;;;;;4182088;28;20044;-85
2022/08/30 02:29:56;;;;;;;3.63;1.40;;;14.40;99.90;;;;;;4165575;28;20073;-85
2022/08/30 02:31:58;;;;;;;3.65;1.70;;;14.40;99.90;;;;;;4182811;28;20129;-85
2022/08/30 02:33:58;;;;;;;4.20;1.95;;;14.40;99.90;;;;;;4181176;28;20044;-85
2022/08/30 02:35:59;;;;;;;2.95;1.30;;;14.40;99.90;;;;;;4181694;28;20604;-85
2022/08/30 02:38:00;;;;;;;3.88;1.80;;;14.40;99.90;;;;;;4182897;28;20047;-85
2022/08/30 02:40:00;;;;;;;2.05;1.38;;;14.40;99.90;;;;;;4181346;28;20053;-85
2022/08/30 02:42:02;;;;;;;3.38;1.63;;;14.40;99.90;;;;;;4181097;28;20056;-85
2022/08/30 02:44:04;;;;;;;3.40;1.60;;;14.40;99.90;;;;;;4180675;28;20538;-85
2022/08/30 02:46:05;;;;;;;3.45;1.80;;;14.40;99.90;;;;;;4180829;28;20053;-85
2022/08/30 02:48:06;;;;;;;1.70;1.35;;;14.40;99.90;;;;;;4181136;28;20045;-85
2022/08/30 02:50:08;;;;;;;7.85;1.90;;;14.30;99.90;;;;;;4180380;28;20049;-85
2022/08/30 02:52:11;;;;;;;2.38;1.70;;;14.40;99.90;;;;;;4181653;28;20045;-84
2022/08/30 02:54:18;;;;;;;5.55;1.60;;;14.40;99.90;;;;;;4182860;28;20402;-85
2022/08/30 02:56:19;;;;;;;4.53;1.85;;;14.30;99.90;;;;;;4181172;28;20063;-85
2022/08/30 02:58:20;;;;;;;3.00;1.60;;;14.40;99.90;;;;;;4185519;28;20123;-84
2022/08/30 03:00:21;;;;;;;3.42;2.10;;;14.40;99.90;;;;;;4185475;28;20049;-84
2022/08/30 03:02:22;;;;;;;3.13;1.88;;;14.40;99.90;;;;;;4184611;28;20128;-84
2022/08/30 03:04:25;;;;;;;4.05;2.20;;;14.40;99.90;;;;;;4184870;28;20121;-84
2022/08/30 03:06:26;;;;;;;3.30;2.20;;;14.40;99.90;;;;;;4186631;28;20524;-83
2022/08/30 03:08:28;;;;;;;4.18;2.30;;;14.40;99.90;;;;;;4184797;28;20485;-84
2022/08/30 03:10:28;;;;;;;3.50;1.80;;;14.40;99.90;;;;;;4165904;28;20124;-85
2022/08/30 03:12:31;;;;;;;2.25;1.70;;;14.40;99.90;;;;;;4181212;28;20068;-86
2022/08/30 03:14:34;;;;;;;3.25;1.98;;;14.40;99.90;;;;;;4181337;28;20067;-85
2022/08/30 03:16:35;;;;;;;4.55;2.10;;;14.20;99.90;;;;;;4183297;28;20076;-85
2022/08/30 03:18:36;;;;;;;4.63;2.15;;;14.40;99.90;;;;;;4165268;28;20103;-85
2022/08/30 03:20:37;;;;;;;3.90;1.80;;;14.40;99.90;;;;;;4182067;28;20072;-84
2022/08/30 03:22:38;;;;;;;5.78;2.17;;;14.40;99.90;;;;;;4183066;28;20490;-85
2022/08/30 03:24:39;;;;;;;5.35;1.98;;;14.40;99.90;;;;;;4181749;28;20059;-85
2022/08/30 03:26:40;;;;;;;3.20;2.00;;;14.40;99.90;;;;;;4183563;28;20057;-84
2022/08/30 03:28:42;;;;;;;3.80;1.88;;;14.40;99.90;;;;;;4183110;28;20518;-85
2022/08/30 03:30:43;;;;;;;3.95;2.05;;;14.40;99.90;;;;;;4182959;28;20560;-85
2022/08/30 03:32:44;;;;;;;4.05;1.88;;;14.30;99.90;;;;;;4183413;28;20080;-85
2022/08/30 03:34:44;;;;;;;1.90;1.42;;;14.30;99.90;;;;;;4183835;28;20576;-85
2022/08/30 03:36:47;;;;;;;2.53;1.60;;;14.30;99.90;;;;;;4166322;28;20083;-85
2022/08/30 03:38:47;;;;;;;1.83;1.25;;;14.20;99.90;;;;;;4183185;28;20541;-85
2022/08/30 03:40:48;;;;;;;5.20;1.90;;;14.20;99.90;;;;;;4185451;28;20049;-85
2022/08/30 03:42:49;;;;;;;4.28;1.60;;;14.10;99.90;;;;;;4184793;28;20103;-86
2022/08/30 03:44:50;;;;;;;4.60;1.60;;;14.10;99.90;;;;;;4186512;28;20033;-85
2022/08/30 03:46:51;;;;;;;2.65;2.00;;;14.10;99.90;;;;;;4187797;28;20057;-85
2022/08/30 03:48:54;;;;;;;6.40;1.70;;;14.00;99.90;;;;;;4187785;28;20048;-85
2022/08/30 03:50:55;;;;;;;2.58;1.48;;;14.00;99.90;;;;;;4188887;28;20052;-85
2022/08/30 03:52:57;;;;;;;2.45;1.40;;;14.00;99.90;;;;;;4185883;28;20127;-85
2022/08/30 03:54:59;;;;;;;3.05;1.35;;;14.00;99.90;;;;;;4183404;28;20037;-85
2022/08/30 03:57:01;;;;;;;4.50;1.60;;;14.00;99.90;;;;;;4181693;28;20052;-85
2022/08/30 03:59:03;;;;;;;7.65;1.60;;;13.90;99.90;;;;;;4182986;28;20494;-85
2022/08/30 04:01:06;;;;;;;4.38;2.17;;;13.90;99.90;;;;;;4183243;28;20049;-85
2022/08/30 04:03:07;;;;;;;5.80;1.70;;;13.80;99.90;;;;;;4182833;28;20055;-85
2022/08/30 04:05:09;;;;;;;2.00;1.33;;;13.80;99.90;;;;;;4182185;28;20053;-86
2022/08/30 04:07:10;;;;;;;3.17;1.63;;;13.70;99.90;;;;;;4183127;28;20120;-86
2022/08/30 04:09:11;;;;;;;4.15;1.33;;;13.70;99.90;;;;;;4181972;28;20060;-85
2022/08/30 04:11:14;;;;;;;3.72;1.65;;;13.70;99.90;;;;;;4182285;28;20041;-85
2022/08/30 04:13:15;;;;;;;6.38;1.52;;;13.70;99.90;;;;;;4183882;28;20126;-85
2022/08/30 04:15:18;;;;;;;4.10;1.67;;;13.60;99.90;;;;;;4182135;28;20053;-86
2022/08/30 04:17:19;;;;;;;3.05;1.65;;;13.60;99.90;;;;;;4182651;28;20053;-85
2022/08/30 04:19:19;;;;;;;3.72;1.50;;;13.60;99.90;;;;;;4181944;28;20048;-85
2022/08/30 04:21:20;;;;;;;2.65;1.40;;;13.60;99.90;;;;;;4181500;28;20674;-85
2022/08/30 04:23:21;;;;;;;4.32;1.90;;;13.50;99.90;;;;;;4181794;28;20518;-83
2022/08/30 04:25:21;;;;;;;3.13;1.70;;;13.50;99.90;;;;;;4162007;28;20408;-85
2022/08/30 04:27:23;;;;;;;2.72;1.42;;;13.50;99.90;;;;;;4181509;28;20048;-83
2022/08/30 04:29:24;;;;;;;1.95;1.63;;;13.40;99.90;;;;;;4164217;28;20038;-85
2022/08/30 04:31:26;;;;;;;6.38;1.73;;;13.40;99.90;;;;;;4181946;28;20155;-86
2022/08/30 04:33:27;;;;;;;3.40;1.90;;;13.40;99.90;;;;;;4164252;28;20049;-86
2022/08/30 04:35:28;;;;;;;3.15;2.13;;;13.40;99.90;;;;;;4180136;28;20128;-85
2022/08/30 04:37:29;;;;;;;14.35;2.13;;;13.30;99.90;;;;;;4180710;28;20201;-86
2022/08/30 04:39:30;;;;;;;4.63;1.90;;;13.30;99.90;;;;;;4180559;28;20064;-86
2022/08/30 04:41:31;;;;;;;7.10;2.70;;;13.30;99.90;;;;;;4180279;28;20049;-86
2022/08/30 04:43:33;;;;;;;4.18;2.50;;;13.30;99.90;;;;;;4181363;28;20041;-86
2022/08/30 04:45:38;;;;;;;8.02;2.20;;;13.30;99.90;;;;;;4182628;28;20403;-84
2022/08/30 04:47:40;;;;;;;4.22;2.55;;;13.30;99.90;;;;;;4182266;28;20051;-85
2022/08/30 04:49:41;;;;;;;4.90;2.88;;;13.30;99.90;;;;;;4181499;28;20067;-85
2022/08/30 04:51:42;;;;;;;8.10;2.40;;;13.30;99.90;;;;;;4180412;28;20053;-86
2022/08/30 04:53:43;;;;;;;3.83;2.13;;;13.40;99.90;;;;;;4163875;28;20491;-86
2022/08/30 04:55:44;;;;;;;6.63;2.33;;;13.40;99.90;;;;;;4180272;28;20044;-86
2022/08/30 04:57:45;;;;;;;3.63;2.15;;;13.40;99.90;;;;;;4179677;28;20562;-86
2022/08/30 04:59:45;;;;;;;4.32;2.47;;;13.30;99.90;;;;;;4179892;28;20541;-86
2022/08/30 05:01:47;;;;;;;5.93;2.80;;;13.30;99.90;;;;;;4179487;28;20620;-86
2022/08/30 05:03:48;;;;;;;4.97;2.63;;;13.30;99.90;;;;;;4180981;28;20080;-86
2022/08/30 05:05:50;;;;;;;5.72;2.67;;;13.30;99.90;;;;;;4179637;28;20049;-86
2022/08/30 05:07:52;;;;;;;5.80;2.65;;;13.30;99.90;;;;;;4179846;28;20055;-86
2022/08/30 05:09:53;;;;;;;9.10;2.72;;;13.20;99.90;;;;;;4179764;28;20041;-86
2022/08/30 05:11:54;;;;;;;4.43;2.70;;;13.20;99.90;;;;;;4180226;28;20476;-86
2022/08/30 05:13:54;;;;;;;3.75;2.15;;;13.20;99.90;;;;;;4180120;28;20045;-86
2022/08/30 05:15:55;;;;;;;4.80;1.90;;;13.20;99.90;;;;;;4181707;28;20060;-86
2022/08/30 05:17:56;;;;;;;6.22;3.08;;;13.20;99.90;;;;;;4180475;28;20092;-86
2022/08/30 05:19:57;;;;;;;5.22;2.63;;;13.20;99.90;;;;;;4179826;28;20589;-86
2022/08/30 05:21:59;;;;;;;4.68;2.40;;;13.20;99.90;;;;;;4164777;28;20104;-86
2022/08/30 05:24:00;;;;;;;3.60;2.05;;;13.20;99.90;;;;;;4182200;28;20072;-85
2022/08/30 05:26:16;;;;;;;3.75;2.15;;;13.20;99.90;;;;;;4181434;28;20053;-86
2022/08/30 05:28:18;;;;;;;4.18;2.08;;;13.20;99.90;;;;;;4181152;28;20095;-85
2022/08/30 05:30:19;;;;;;;2.28;1.80;;;13.20;99.90;;;;;;4182577;28;20095;-85
2022/08/30 05:32:20;;;;;;;4.50;1.88;;;13.20;99.90;;;;;;4181116;28;20044;-86
2022/08/30 05:34:22;;;;;;;2.83;1.95;;;13.20;99.90;;;;;;4163522;28;20515;-85
2022/08/30 05:36:25;;;;;;;3.97;1.95;;;13.20;99.90;;;;;;4179227;28;20045;-85
2022/08/30 05:38:26;;;;;;;5.38;2.42;;;13.20;99.90;;;;;;4179931;28;20041;-86
2022/08/30 05:40:27;;;;;;;2.88;2.08;;;13.20;99.90;;;;;;4179685;28;20052;-86
2022/08/30 05:42:28;;;;;;;4.82;2.28;;;13.20;99.90;;;;;;4179635;28;20041;-85
2022/08/30 05:44:28;;;;;;;5.53;2.38;;;13.20;99.90;;;;;;4180716;28;20037;-86
2022/08/30 05:46:32;;;;;;;2.83;2.10;;;13.30;99.90;;;;;;4179972;28;20095;-85
2022/08/30 05:48:33;;;;;;;4.47;2.58;;;13.30;99.90;;;;;;4181501;28;20041;-85
2022/08/30 05:50:34;;;;;;;6.45;2.35;;;13.30;99.90;;;;;;4181800;28;20136;-85
2022/08/30 05:52:40;;;;;;;3.28;2.45;;;13.30;99.90;;;;;;4179673;28;20482;-86
2022/08/30 05:54:41;;;;;;;3.72;2.50;;;13.30;99.90;;;;;;4180689;28;20387;-85
2022/08/30 05:56:44;;;;;;;2.47;2.05;;;13.40;99.90;;;;;;4180737;28;20048;-85
2022/08/30 05:58:45;;;;;;;2.78;1.80;;;13.40;99.90;;;;;;4184502;28;20028;-84
2022/08/30 06:00:45;;;;;;;4.38;2.17;;;13.50;99.90;;;;;;4182216;28;20197;-84
2022/08/30 06:02:46;;;;;;;3.05;2.03;;;13.50;99.90;;;;;;4181377;28;20064;-84
2022/08/30 06:04:47;;;;;;;3.05;1.95;;;13.50;99.90;;;;;;4181394;28;20498;-84
2022/08/30 06:06:47;;;;;;;3.83;2.25;;;13.60;99.90;;;;;;4182015;28;20048;-84
2022/08/30 06:08:50;;;;;;;9.25;2.60;;;13.60;99.90;;;;;;4181857;28;20406;-84
2022/08/30 06:10:51;;;;;;;4.15;1.90;;;13.70;99.90;;;;;;4181395;28;20063;-84
2022/08/30 06:12:52;;;;;;;3.83;2.13;;;13.80;99.90;;;;;;4164059;28;20064;-84
2022/08/30 06:14:53;;;;;;;6.35;2.70;;;13.90;99.90;;;;;;4180311;28;20051;-84
2022/08/30 06:16:54;;;;;;;3.35;2.70;;;14.00;99.90;;;;;;4163910;28;20590;-84
2022/08/30 06:18:56;;;;;;;2.83;2.10;;;14.10;99.90;;;;;;4180987;28;20049;-84
2022/08/30 06:20:57;;;;;;;4.50;2.40;;;14.20;99.90;;;;;;4164628;28;20136;-85
2022/08/30 06:22:59;;;;;;;3.45;1.88;;;14.30;99.90;;;;;;4163617;28;20053;-82
2022/08/30 06:24:59;;;;;;;2.90;2.03;;;14.40;99.90;;;;;;4181014;28;20056;-83
2022/08/30 06:27:00;;;;;;;6.28;3.00;;;14.50;99.90;;;;;;4179944;28;20048;-83
2022/08/30 06:29:01;;;;;;;3.78;2.72;;;14.60;99.90;;;;;;4180266;28;20080;-83
2022/08/30 06:31:05;;;;;;;3.50;1.92;;;14.70;99.90;;;;;;4180335;28;20410;-82
2022/08/30 06:33:06;;;;;;;5.65;2.60;;;14.80;99.90;;;;;;4182791;28;20045;-82
2022/08/30 06:35:07;;;;;;;4.93;2.75;;;15.00;99.90;;;;;;4182517;28;20037;-84
2022/08/30 06:37:08;;;;;;;5.10;2.60;;;15.10;99.90;;;;;;4187970;28;20048;-84
2022/08/30 06:39:09;;;;;;;5.30;2.28;;;14.60;99.90;;;;;;4191466;28;20048;-85
2022/08/30 06:41:17;;;;;;;5.00;2.22;;;15.30;99.90;;;;;;4184767;28;20045;-85
2022/08/30 06:43:17;;;;;;;7.25;2.35;;;15.50;99.90;;;;;;4183776;28;20053;-86
2022/08/30 06:45:19;;;;;;;4.32;1.90;;;15.60;99.90;;;;;;4167415;28;20136;-86
2022/08/30 06:47:21;;;;;;;2.90;1.90;;;15.70;99.90;;;;;;4183702;28;20083;-87
2022/08/30 06:49:21;;;;;;;4.05;1.88;;;15.80;99.90;;;;;;4185155;28;20055;-86
2022/08/30 06:51:25;;;;;;;5.68;2.42;;;16.00;99.90;;;;;;4185270;28;20084;-86
2022/08/30 06:53:28;;;;;;;2.45;1.90;;;16.10;99.90;;;;;;4182857;28;20095;-86
2022/08/30 06:55:32;;;;;;;5.63;1.70;;;16.20;99.90;;;;;;4167070;28;20053;-86
2022/08/30 06:57:32;;;;;;;7.53;2.72;;;16.40;99.90;;;;;;4184979;28;20041;-86
2022/08/30 06:59:33;;;;;;;7.22;1.60;;;16.50;99.90;;;;;;4184869;28;20052;-86
2022/08/30 07:01:34;;;;;;;3.75;1.40;;;16.70;99.90;;;;;;4183881;28;20106;-86
2022/08/30 07:03:35;;;;;;;3.47;1.40;;;16.80;99.90;;;;;;4183276;28;20536;-86
2022/08/30 07:05:36;;;;;;;2.20;1.23;;;17.00;99.90;;;;;;4182254;28;20045;-85
2022/08/30 07:07:38;;;;;;;2.30;1.17;;;17.10;99.90;;;;;;4182384;28;20045;-87
2022/08/30 07:09:43;;;;;;;4.65;1.40;;;17.20;99.90;;;;;;4182398;28;20071;-86
2022/08/30 07:11:43;;;;;;;3.42;1.48;;;17.40;99.90;;;;;;4166565;28;20054;-85
2022/08/30 07:13:44;;;;;;;3.30;1.38;;;17.50;99.90;;;;;;4180743;28;20064;-86
2022/08/30 07:15:45;;;;;;;1.58;0.98;;;17.60;99.90;;;;;;4184998;28;20379;-86
2022/08/30 07:20:09;;;;;;;1.40;0.80;;;17.80;99.80;;;;;;4183974;28;20092;-87
2022/08/30 07:22:09;;;;;;;1.27;0.90;;;17.90;99.40;;;;;;4183882;28;20140;-86
2022/08/30 07:24:12;;;;;;;2.67;0.80;;;18.10;99.20;;;;;;4182837;28;20045;-86
2022/08/30 07:26:16;;;;;;;2.17;1.00;;;18.30;99.00;;;;;;4182037;28;20077;-86
2022/08/30 07:28:16;;;;;;;2.33;0.70;;;18.40;98.80;;;;;;4181914;28;20060;-85
2022/08/30 07:30:18;;;;;;;1.77;0.85;;;18.50;98.40;;;;;;4165439;28;20049;-86
2022/08/30 07:32:18;;;;;;;2.47;0.70;;;18.60;98.10;;;;;;4183919;28;20045;-87
2022/08/30 07:34:20;;;;;;;3.03;0.57;;;18.70;98.20;;;;;;4166253;28;20088;-87
2022/08/30 07:36:21;;;;;;;2.83;0.77;;;18.90;97.50;;;;;;4183208;28;20057;-87
2022/08/30 07:38:22;;;;;;;3.22;0.90;;;19.00;97.10;;;;;;4183202;28;20049;-88
2022/08/30 07:40:23;;;;;;;0.60;0.50;;;19.00;96.80;;;;;;4181795;28;20060;-88
2022/08/30 07:42:24;;;;;;;2.55;1.00;;;19.20;96.50;;;;;;4164596;28;20045;-87
2022/08/30 07:44:26;;;;;;;3.47;0.90;;;19.30;96.20;;;;;;4188129;28;20043;-87
2022/08/30 07:46:29;;;;;;;1.95;0.90;;;19.40;95.80;;;;;;4189112;28;20047;-86
2022/08/30 07:48:31;;;;;;;1.77;0.80;;;19.50;95.40;;;;;;4183834;28;20106;-88
2022/08/30 07:50:32;;;;;;;4.55;0.80;;;19.60;95.30;;;;;;4172649;28;20408;-85
2022/08/30 07:52:33;;;;;;;1.63;0.75;;;19.70;94.60;;;;;;4150066;28;20584;-85
2022/08/30 07:54:34;;;;;;;2.60;0.77;;;19.70;94.20;;;;;;4165756;28;20111;-87
2022/08/30 07:56:36;;;;;;;1.35;0.63;;;19.90;93.90;;;;;;4167978;28;20096;-86
2022/08/30 07:58:37;;;;;;;5.13;1.63;;;20.00;93.50;;;;;;4167416;28;20046;-85
2022/08/30 08:00:37;;;;;;;0.90;0.60;;;20.10;93.10;;;;;;4167552;28;20041;-86
2022/08/30 08:02:40;;;;;;;0.85;0.68;;;20.10;92.80;;;;;;4176961;28;20041;-85
2022/08/30 08:04:41;;;;;;;7.00;0.70;;;20.20;92.50;;;;;;4184161;28;20045;-86
2022/08/30 08:06:44;;;;;;;2.50;0.77;;;20.40;92.30;;;;;;4183762;28;20077;-86
2022/08/30 08:08:46;;;;;;;5.07;0.70;;;20.50;92.20;;;;;;4183540;28;20052;-87
2022/08/30 08:10:46;;;;;;;1.85;0.60;;;20.70;91.90;;;;;;4183791;28;20116;-84
2022/08/30 08:12:48;;;;;;;0.85;0.50;;;20.80;91.70;;;;;;4184469;28;20564;-84
2022/08/30 08:14:50;;;;;;;1.20;0.60;;;21.00;91.50;;;;;;4183232;28;20560;-84
2022/08/30 08:16:51;;;;;;;1.08;0.55;;;21.10;91.10;;;;;;4181569;28;20128;-85
2022/08/30 08:18:52;;;;;;;1.27;0.65;;;21.20;90.80;;;;;;4194220;28;20052;-85
2022/08/30 08:20:53;;;;;;;1.88;0.50;;;21.30;90.60;;;;;;4183477;28;20119;-84
2022/08/30 08:22:55;;;;;;;3.08;0.80;;;21.30;90.20;;;;;;4181857;28;20189;-84
2022/08/30 08:24:56;;;;;;;3.50;0.70;;;21.20;89.80;;;;;;4183388;28;20048;-85
2022/08/30 08:26:57;;;;;;;1.17;0.50;;;21.30;89.30;;;;;;4184319;28;20483;-85
2022/08/30 08:28:58;;;;;;;1.70;0.70;;;21.50;88.70;;;;;;4187097;28;20090;-83
2022/08/30 08:30:59;;;;;;;1.63;0.60;;;21.80;88.10;;;;;;4188344;28;20048;-84
2022/08/30 08:33:00;;;;;;;3.45;0.60;;;21.80;87.40;;;;;;4183934;28;20324;-84
2022/08/30 08:35:02;;;;;;;2.10;0.65;;;21.80;87.20;;;;;;4183924;28;20068;-84
2022/08/30 08:37:03;;;;;;;2.00;0.70;;;21.60;86.50;;;;;;4183800;28;20121;-84
2022/08/30 08:39:06;;;;;;;1.02;0.50;;;21.60;86.20;;;;;;4184055;28;20043;-85
2022/08/30 08:41:16;;;;;;;1.42;0.50;;;21.50;85.90;;;;;;4181174;28;20478;-85
2022/08/30 08:43:21;;;;;;;2.67;0.60;;;21.60;85.80;;;;;;4183705;28;20045;-84
2022/08/30 08:45:50;;;;;;;1.67;0.60;;;21.90;85.50;;;;;;4173967;28;20049;-85
2022/08/30 08:48:06;;;;;;;5.82;0.60;;;22.30;83.90;;;;;;4135532;28;20156;-85
2022/08/30 08:50:16;;;;;;;3.20;0.50;;;22.60;83.60;;;;;;4176290;28;20445;-85
2022/08/30 08:55:19;;;;;;;2.25;0.70;;;23.10;80.20;;;;;;4178803;28;20064;-84
2022/08/30 08:57:21;;;;;;;4.72;0.80;;;22.80;82.30;;;;;;4183060;28;20051;-84
2022/08/30 08:59:22;;;;;;;3.88;1.00;;;22.70;82.00;;;;;;4184275;28;20040;-85
2022/08/30 09:01:29;;;;;;;2.00;0.70;;;22.80;82.30;;;;;;4188167;28;20079;-85
2022/08/30 09:03:30;;;;;;;3.70;0.55;;;22.90;81.80;;;;;;4190148;28;20084;-84
2022/08/30 09:05:37;;;;;;;3.10;0.70;;;23.00;81.40;;;;;;4192203;28;20060;-83
2022/08/30 09:07:43;;;;;;;1.20;0.60;;;23.20;80.50;;;;;;4189098;28;20052;-83
2022/08/30 09:09:43;;;;;;;1.25;0.70;;;23.40;79.90;;;;;;4190834;28;20048;-83
2022/08/30 09:11:46;;;;;;;2.47;0.75;;;23.50;79.10;;;;;;4191053;28;20068;-83
2022/08/30 09:13:47;;;;;;;1.55;0.88;;;23.80;78.80;;;;;;4192666;28;20107;-82
2022/08/30 09:15:48;;;;;;;0.93;0.60;;;23.80;78.50;;;;;;4190354;28;20091;-83
2022/08/30 09:17:58;;;;;;;4.45;0.70;;;23.80;78.30;;;;;;4183640;28;20076;-84
2022/08/30 09:20:01;;;;;;;2.38;0.60;;;23.80;77.60;;;;;;4183868;28;20083;-83
2022/08/30 09:22:21;;;;;;;1.42;0.52;;;23.90;77.20;;;;;;4187295;28;20094;-83
2022/08/30 09:24:22;;;;;;;1.65;0.60;;;24.20;74.00;;;;;;4186112;28;20084;-82
2022/08/30 09:26:33;;;;;;;3.58;0.70;;;24.50;75.50;;;;;;4184956;28;20080;-83
2022/08/30 09:28:58;;;;;;;2.65;0.60;;;24.80;73.60;;;;;;4185431;28;20052;-83
2022/08/30 09:31:04;;;;;;;4.25;0.80;;;24.80;71.90;;;;;;4185690;28;20449;-83
2022/08/30 09:33:18;;;;;;;1.35;0.50;;;24.90;73.50;;;;;;4186702;28;20052;-82
2022/08/30 09:35:23;;;;;;;1.60;0.60;;;24.80;71.30;;;;;;4185648;28;20068;-82
2022/08/30 09:37:30;;;;;;;1.95;0.50;;;24.50;71.40;;;;;;4185312;28;20104;-83
2022/08/30 09:39:36;;;;;;;3.40;0.57;;;24.60;71.20;;;;;;4189292;28;20103;-82
2022/08/30 09:41:42;;;;;;;3.22;0.60;;;24.70;71.00;;;;;;4184235;28;20525;-82
2022/08/30 09:43:43;;;;;;;1.25;0.70;;;25.00;70.00;;;;;;4183009;28;20434;-82
2022/08/30 09:46:03;;;;;;;1.77;0.40;;;25.40;70.00;;;;;;4185144;28;20049;-82
2022/08/30 09:48:26;;;;;;;0.73;0.60;;;25.60;69.00;;;;;;4186497;28;20052;-83
2022/08/30 09:50:35;;;;;;;1.67;0.70;;;26.00;66.90;;;;;;4186065;28;20107;-83
2022/08/30 09:52:58;;;;;;;1.92;0.45;;;26.40;67.00;;;;;;4186200;28;20466;-83
2022/08/30 09:55:06;;;;;;;1.75;0.52;;;26.70;67.30;;;;;;4183604;28;20083;-83
2022/08/30 09:57:28;;;;;;;0.52;0.32;;;26.90;65.80;;;;;;4185243;28;20060;-83
2022/08/30 10:00:04;;;;;;;1.73;0.70;;;27.20;64.00;;;;;;4185466;28;20087;-82
2022/08/30 10:02:35;;;;;;;1.15;0.52;;;27.20;62.10;;;;;;4193142;28;20037;-82
2022/08/30 10:05:10;;;;;;;2.25;0.77;;;27.50;61.80;;;;;;4199763;28;20043;-82
2022/08/30 10:07:21;;;;;;;1.02;0.50;;;27.80;60.90;;;;;;4201227;28;20044;-82
2022/08/30 10:09:31;;;;;;;2.75;0.50;;;28.20;62.00;;;;;;4201599;28;20037;-81
2022/08/30 10:11:55;;;;;;;3.00;0.60;;;28.70;60.00;;;;;;4200466;28;20039;-83
2022/08/30 10:14:15;;;;;;;1.23;0.60;;;29.00;60.80;;;;;;4200508;28;20036;-83
2022/08/30 10:16:18;;;;;;;1.33;0.80;;;29.00;57.60;;;;;;4201460;28;20072;-83
2022/08/30 10:18:39;;;;;;;5.68;0.60;;;28.50;58.70;;;;;;4200308;28;20040;-82
2022/08/30 10:21:00;;;;;;;3.22;0.60;;;28.00;58.00;;;;;;4192085;28;20040;-82
2022/08/30 10:23:08;;;;;;;5.20;0.57;;;27.50;58.40;;;;;;4185318;28;20071;-83
2022/08/30 10:25:17;;;;;;;3.33;0.60;;;26.90;59.70;;;;;;4185181;28;20060;-83
2022/08/30 10:27:38;;;;;;;1.10;0.50;;;26.40;59.70;;;;;;4186215;28;20049;-82
2022/08/30 10:29:50;;;;;;;4.50;0.80;;;26.00;60.20;;;;;;4185789;28;20487;-82
2022/08/30 10:31:59;;;;;;;5.40;0.60;;;25.80;61.00;;;;;;4185737;28;20114;-82
2022/08/30 10:34:08;;;;;;;2.35;0.60;;;25.70;61.30;;;;;;4187207;28;20461;-82
2022/08/30 10:36:10;;;;;;;;;;;25.70;61.00;;;;;;4188020;28;20097;-82
2022/08/30 10:38:29;;;;;;;2.28;0.52;;;25.90;58.20;;;;;;4185552;28;20488;-82
2022/08/30 10:43:12;;;;;;;2.05;0.60;;;26.80;59.90;;;;;;4186539;28;20109;-82
2022/08/30 10:45:16;;;;;;;1.58;0.55;;;27.40;59.00;;;;;;4185371;28;20041;-82
2022/08/30 10:47:42;;;;;;;2.83;0.45;;;27.60;58.40;;;;;;4185836;28;20051;-82
2022/08/30 10:49:45;;;;;;;2.50;0.82;;;27.50;57.20;;;;;;4184289;28;20106;-82
2022/08/30 10:52:06;;;;;;;3.03;0.80;;;27.70;58.30;;;;;;4183630;28;20462;-82
2022/08/30 10:54:15;;;;;;;0.82;0.47;;;27.80;57.20;;;;;;4185742;28;20051;-82